sensor_id;sensor_type;location;lat;lon;timestamp;temperature;humidity
10249;DHT22;5169;50.560;9.714;2022-07-01T00:02:04;19.80;99.90
10249;DHT22;5169;50.560;9.714;2022-07-01T00:04:29;19.80;99.90
10249;DHT22;5169;50.560;9.714;2022-07-01T00:06:55;19.80;99.90
10249;DHT22;5169;50.560;9.714;2022-07-01T00:09:21;19.80;99.90
10249;DHT22;5169;50.560;9.714;2022-07-01T00:11:48;19.70;99.90
10249;DHT22;5169;50.560;9.714;2022-07-01T00:14:14;19.50;99.90
10249;DHT22;5169;50.560;9.714;2022-07-01T00:16:42;19.30;99.90
10249;DHT22;5169;50.560;9.714;2022-07-01T00:19:08;19.20;99.90
10249;DHT22;5169;50.560;9.714;2022-07-01T00:21:34;19.20;99.90
10249;DHT22;5169;50.560;9.714;2022-07-01T00:24:00;19.10;99.90
10249;DHT22;5169;50.560;9.714;2022-07-01T00:26:26;18.90;99.90
10249;DHT22;5169;50.560;9.714;2022-07-01T00:28:51;18.90;99.90
10249;DHT22;5169;50.560;9.714;2022-07-01T00:31:17;18.90;99.90
10249;DHT22;5169;50.560;9.714;2022-07-01T00:33:43;18.90;99.90
10249;DHT22;5169;50.560;9.714;2022-07-01T00:36:11;18.90;99.90
10249;DHT22;5169;50.560;9.714;2022-07-01T00:38:36;18.80;99.90
10249;DHT22;5169;50.560;9.714;2022-07-01T00:41:02;18.90;99.90
10249;DHT22;5169;50.560;9.714;2022-07-01T00:43:35;18.80;99.90
10249;DHT22;5169;50.560;9.714;2022-07-01T00:46:01;18.80;99.90
10249;DHT22;5169;50.560;9.714;2022-07-01T00:48:27;18.80;99.90
10249;DHT22;5169;50.560;9.714;2022-07-01T00:50:53;18.80;99.90
10249;DHT22;5169;50.560;9.714;2022-07-01T00:53:21;18.80;99.90
10249;DHT22;5169;50.560;9.714;2022-07-01T00:55:46;18.60;99.90
10249;DHT22;5169;50.560;9.714;2022-07-01T00:58:12;18.50;99.90
10249;DHT22;5169;50.560;9.714;2022-07-01T01:00:40;18.50;99.90
10249;DHT22;5169;50.560;9.714;2022-07-01T01:03:07;18.50;99.90
10249;DHT22;5169;50.560;9.714;2022-07-01T01:05:36;18.50;99.90
10249;DHT22;5169;50.560;9.714;2022-07-01T01:08:03;18.50;99.90
10249;DHT22;5169;50.560;9.714;2022-07-01T01:10:30;18.50;99.90
10249;DHT22;5169;50.560;9.714;2022-07-01T01:13:00;18.40;99.90
10249;DHT22;5169;50.560;9.714;2022-07-01T01:15:26;18.30;99.90
10249;DHT22;5169;50.560;9.714;2022-07-01T01:17:55;18.20;99.90
10249;DHT22;5169;50.560;9.714;2022-07-01T01:20:21;18.00;99.90
10249;DHT22;5169;50.560;9.714;2022-07-01T01:22:50;17.90;99.90
10249;DHT22;5169;50.560;9.714;2022-07-01T01:25:16;17.80;99.90
10249;DHT22;5169;50.560;9.714;2022-07-01T01:27:44;17.70;99.90
10249;DHT22;5169;50.560;9.714;2022-07-01T01:30:11;17.60;99.90
10249;DHT22;5169;50.560;9.714;2022-07-01T01:32:38;17.60;99.90
10249;DHT22;5169;50.560;9.714;2022-07-01T01:35:04;17.50;99.90
10249;DHT22;5169;50.560;9.714;2022-07-01T01:37:30;17.40;99.90
10249;DHT22;5169;50.560;9.714;2022-07-01T01:39:56;17.40;99.90
10249;DHT22;5169;50.560;9.714;2022-07-01T01:42:23;17.30;99.90
10249;DHT22;5169;50.560;9.714;2022-07-01T01:44:51;17.20;99.90
10249;DHT22;5169;50.560;9.714;2022-07-01T01:47:20;17.20;99.90
10249;DHT22;5169;50.560;9.714;2022-07-01T01:49:46;17.20;99.90
10249;DHT22;5169;50.560;9.714;2022-07-01T01:52:16;17.20;99.90
10249;DHT22;5169;50.560;9.714;2022-07-01T01:54:42;17.20;99.90
10249;DHT22;5169;50.560;9.714;2022-07-01T01:57:07;17.00;99.90
10249;DHT22;5169;50.560;9.714;2022-07-01T01:59:33;17.00;99.90
10249;DHT22;5169;50.560;9.714;2022-07-01T02:01:59;16.90;99.90
10249;DHT22;5169;50.560;9.714;2022-07-01T02:04:25;17.00;99.90
10249;DHT22;5169;50.560;9.714;2022-07-01T02:06:53;17.00;99.90
10249;DHT22;5169;50.560;9.714;2022-07-01T02:09:19;16.90;99.90
10249;DHT22;5169;50.560;9.714;2022-07-01T02:11:45;16.70;99.90
10249;DHT22;5169;50.560;9.714;2022-07-01T02:14:11;16.80;99.90
10249;DHT22;5169;50.560;9.714;2022-07-01T02:16:36;16.80;99.90
10249;DHT22;5169;50.560;9.714;2022-07-01T02:19:02;16.90;99.90
10249;DHT22;5169;50.560;9.714;2022-07-01T02:21:29;17.00;99.90
10249;DHT22;5169;50.560;9.714;2022-07-01T02:23:54;17.10;99.90
10249;DHT22;5169;50.560;9.714;2022-07-01T02:26:22;17.00;99.90
10249;DHT22;5169;50.560;9.714;2022-07-01T02:28:50;17.00;99.90
10249;DHT22;5169;50.560;9.714;2022-07-01T02:31:16;17.00;99.90
10249;DHT22;5169;50.560;9.714;2022-07-01T02:33:47;17.00;99.90
10249;DHT22;5169;50.560;9.714;2022-07-01T02:36:15;16.90;99.90
10249;DHT22;5169;50.560;9.714;2022-07-01T02:38:41;16.80;99.90
10249;DHT22;5169;50.560;9.714;2022-07-01T02:41:07;16.80;99.90
10249;DHT22;5169;50.560;9.714;2022-07-01T02:43:34;16.70;99.90
10249;DHT22;5169;50.560;9.714;2022-07-01T02:46:02;16.60;99.90
10249;DHT22;5169;50.560;9.714;2022-07-01T02:48:28;16.70;99.90
10249;DHT22;5169;50.560;9.714;2022-07-01T02:50:56;16.70;99.90
10249;DHT22;5169;50.560;9.714;2022-07-01T02:53:22;16.60;99.90
10249;DHT22;5169;50.560;9.714;2022-07-01T02:55:48;16.60;99.90
10249;DHT22;5169;50.560;9.714;2022-07-01T02:58:13;16.60;99.90
10249;DHT22;5169;50.560;9.714;2022-07-01T03:00:41;16.60;99.90
10249;DHT22;5169;50.560;9.714;2022-07-01T03:03:07;16.60;99.90
10249;DHT22;5169;50.560;9.714;2022-07-01T03:05:35;16.70;99.90
10249;DHT22;5169;50.560;9.714;2022-07-01T03:08:00;16.60;99.90
10249;DHT22;5169;50.560;9.714;2022-07-01T03:10:26;16.40;99.90
10249;DHT22;5169;50.560;9.714;2022-07-01T03:12:52;16.30;99.90
10249;DHT22;5169;50.560;9.714;2022-07-01T03:15:18;16.20;99.90
10249;DHT22;5169;50.560;9.714;2022-07-01T03:17:45;16.20;99.90
10249;DHT22;5169;50.560;9.714;2022-07-01T03:20:13;16.30;99.90
10249;DHT22;5169;50.560;9.714;2022-07-01T03:22:41;16.30;99.90
10249;DHT22;5169;50.560;9.714;2022-07-01T03:25:07;16.40;99.90
10249;DHT22;5169;50.560;9.714;2022-07-01T03:27:34;16.50;99.90
10249;DHT22;5169;50.560;9.714;2022-07-01T03:30:04;16.70;99.90
10249;DHT22;5169;50.560;9.714;2022-07-01T03:32:31;16.50;99.90
10249;DHT22;5169;50.560;9.714;2022-07-01T03:34:59;16.40;99.90
10249;DHT22;5169;50.560;9.714;2022-07-01T03:37:25;16.30;99.90
10249;DHT22;5169;50.560;9.714;2022-07-01T03:39:51;16.20;99.90
10249;DHT22;5169;50.560;9.714;2022-07-01T03:42:19;16.20;99.90
10249;DHT22;5169;50.560;9.714;2022-07-01T03:44:45;16.20;99.90
10249;DHT22;5169;50.560;9.714;2022-07-01T03:47:11;16.20;99.90
10249;DHT22;5169;50.560;9.714;2022-07-01T03:49:37;16.20;99.90
10249;DHT22;5169;50.560;9.714;2022-07-01T03:52:06;16.20;99.90
10249;DHT22;5169;50.560;9.714;2022-07-01T03:54:31;16.30;99.90
10249;DHT22;5169;50.560;9.714;2022-07-01T03:57:05;16.30;99.90
10249;DHT22;5169;50.560;9.714;2022-07-01T03:59:33;16.20;99.90
10249;DHT22;5169;50.560;9.714;2022-07-01T04:01:59;16.30;99.90
10249;DHT22;5169;50.560;9.714;2022-07-01T04:04:26;16.30;99.90
10249;DHT22;5169;50.560;9.714;2022-07-01T04:06:58;16.20;99.90
10249;DHT22;5169;50.560;9.714;2022-07-01T04:09:24;16.20;99.90
10249;DHT22;5169;50.560;9.714;2022-07-01T04:11:50;16.20;99.90
10249;DHT22;5169;50.560;9.714;2022-07-01T04:14:19;16.20;99.90
10249;DHT22;5169;50.560;9.714;2022-07-01T04:16:45;16.30;99.90
10249;DHT22;5169;50.560;9.714;2022-07-01T04:19:11;16.20;99.90
10249;DHT22;5169;50.560;9.714;2022-07-01T04:21:38;16.20;99.90
10249;DHT22;5169;50.560;9.714;2022-07-01T04:24:23;16.20;99.90
10249;DHT22;5169;50.560;9.714;2022-07-01T04:26:50;16.10;99.90
10249;DHT22;5169;50.560;9.714;2022-07-01T04:29:15;16.10;99.90
10249;DHT22;5169;50.560;9.714;2022-07-01T04:31:45;16.10;99.90
10249;DHT22;5169;50.560;9.714;2022-07-01T04:34:15;16.10;99.90
10249;DHT22;5169;50.560;9.714;2022-07-01T04:36:41;16.20;99.90
10249;DHT22;5169;50.560;9.714;2022-07-01T04:39:09;16.20;99.90
10249;DHT22;5169;50.560;9.714;2022-07-01T04:41:35;16.10;99.90
10249;DHT22;5169;50.560;9.714;2022-07-01T04:44:19;16.10;99.90
10249;DHT22;5169;50.560;9.714;2022-07-01T04:46:45;16.30;99.90
10249;DHT22;5169;50.560;9.714;2022-07-01T04:49:11;16.20;99.90
10249;DHT22;5169;50.560;9.714;2022-07-01T04:51:37;16.20;99.90
10249;DHT22;5169;50.560;9.714;2022-07-01T04:54:06;16.00;99.90
10249;DHT22;5169;50.560;9.714;2022-07-01T04:56:35;15.90;99.90
10249;DHT22;5169;50.560;9.714;2022-07-01T05:05:45;15.90;99.90
10249;DHT22;5169;50.560;9.714;2022-07-01T05:08:10;15.80;99.90
10249;DHT22;5169;50.560;9.714;2022-07-01T05:10:39;15.80;99.90
10249;DHT22;5169;50.560;9.714;2022-07-01T05:13:06;15.60;99.90
10249;DHT22;5169;50.560;9.714;2022-07-01T05:15:32;15.60;99.90
10249;DHT22;5169;50.560;9.714;2022-07-01T05:17:58;15.70;99.90
10249;DHT22;5169;50.560;9.714;2022-07-01T05:20:42;15.80;99.90
10249;DHT22;5169;50.560;9.714;2022-07-01T05:23:29;15.70;99.90
10249;DHT22;5169;50.560;9.714;2022-07-01T05:25:54;15.80;99.90
10249;DHT22;5169;50.560;9.714;2022-07-01T05:28:20;15.70;99.90
10249;DHT22;5169;50.560;9.714;2022-07-01T05:30:48;15.70;99.90
10249;DHT22;5169;50.560;9.714;2022-07-01T05:33:14;15.90;99.90
10249;DHT22;5169;50.560;9.714;2022-07-01T05:35:40;15.80;99.90
10249;DHT22;5169;50.560;9.714;2022-07-01T05:38:05;15.70;99.90
10249;DHT22;5169;50.560;9.714;2022-07-01T05:40:31;15.80;99.90
10249;DHT22;5169;50.560;9.714;2022-07-01T05:42:57;15.80;99.90
10249;DHT22;5169;50.560;9.714;2022-07-01T05:45:22;15.70;99.90
10249;DHT22;5169;50.560;9.714;2022-07-01T05:47:48;15.80;99.90
10249;DHT22;5169;50.560;9.714;2022-07-01T05:50:14;15.70;99.90
10249;DHT22;5169;50.560;9.714;2022-07-01T05:52:41;15.70;99.90
10249;DHT22;5169;50.560;9.714;2022-07-01T05:55:09;15.70;99.90
10249;DHT22;5169;50.560;9.714;2022-07-01T05:57:36;15.70;99.90
10249;DHT22;5169;50.560;9.714;2022-07-01T06:00:09;15.60;99.90
10249;DHT22;5169;50.560;9.714;2022-07-01T06:02:39;15.70;99.90
10249;DHT22;5169;50.560;9.714;2022-07-01T06:05:05;15.90;99.90
10249;DHT22;5169;50.560;9.714;2022-07-01T06:07:31;16.00;99.90
10249;DHT22;5169;50.560;9.714;2022-07-01T06:09:57;16.10;99.90
10249;DHT22;5169;50.560;9.714;2022-07-01T06:12:25;16.20;99.90
10249;DHT22;5169;50.560;9.714;2022-07-01T06:14:51;16.20;99.90
10249;DHT22;5169;50.560;9.714;2022-07-01T06:17:19;16.40;99.90
10249;DHT22;5169;50.560;9.714;2022-07-01T06:19:44;16.50;99.90
10249;DHT22;5169;50.560;9.714;2022-07-01T06:22:14;16.50;99.90
10249;DHT22;5169;50.560;9.714;2022-07-01T06:24:43;16.70;99.90
10249;DHT22;5169;50.560;9.714;2022-07-01T06:27:10;16.70;99.90
10249;DHT22;5169;50.560;9.714;2022-07-01T06:29:36;16.50;99.90
10249;DHT22;5169;50.560;9.714;2022-07-01T06:32:03;16.40;99.90
10249;DHT22;5169;50.560;9.714;2022-07-01T06:34:29;16.50;99.90
10249;DHT22;5169;50.560;9.714;2022-07-01T06:36:57;16.50;99.90
10249;DHT22;5169;50.560;9.714;2022-07-01T06:39:26;16.60;99.90
10249;DHT22;5169;50.560;9.714;2022-07-01T06:41:55;16.60;99.90
10249;DHT22;5169;50.560;9.714;2022-07-01T06:44:21;16.60;99.90
10249;DHT22;5169;50.560;9.714;2022-07-01T06:46:47;16.70;99.90
10249;DHT22;5169;50.560;9.714;2022-07-01T06:49:12;16.70;99.90
10249;DHT22;5169;50.560;9.714;2022-07-01T06:51:38;16.70;99.90
10249;DHT22;5169;50.560;9.714;2022-07-01T06:54:04;16.70;99.90
10249;DHT22;5169;50.560;9.714;2022-07-01T06:56:30;16.50;99.90
10249;DHT22;5169;50.560;9.714;2022-07-01T06:58:58;16.60;99.90
10249;DHT22;5169;50.560;9.714;2022-07-01T07:01:26;16.70;99.90
10249;DHT22;5169;50.560;9.714;2022-07-01T07:03:54;16.90;99.90
10249;DHT22;5169;50.560;9.714;2022-07-01T07:06:20;17.00;99.90
10249;DHT22;5169;50.560;9.714;2022-07-01T07:08:46;16.90;99.90
10249;DHT22;5169;50.560;9.714;2022-07-01T07:11:13;16.90;99.90
10249;DHT22;5169;50.560;9.714;2022-07-01T07:13:40;16.90;99.90
10249;DHT22;5169;50.560;9.714;2022-07-01T07:16:09;16.90;99.90
10249;DHT22;5169;50.560;9.714;2022-07-01T07:18:34;17.00;99.90
10249;DHT22;5169;50.560;9.714;2022-07-01T07:21:00;17.10;99.90
10249;DHT22;5169;50.560;9.714;2022-07-01T07:23:26;17.30;99.90
10249;DHT22;5169;50.560;9.714;2022-07-01T07:25:52;17.50;99.90
10249;DHT22;5169;50.560;9.714;2022-07-01T07:28:17;17.70;99.90
10249;DHT22;5169;50.560;9.714;2022-07-01T07:30:45;17.90;99.90
10249;DHT22;5169;50.560;9.714;2022-07-01T07:33:11;18.00;99.90
10249;DHT22;5169;50.560;9.714;2022-07-01T07:35:37;18.10;99.90
10249;DHT22;5169;50.560;9.714;2022-07-01T07:38:05;17.90;99.90
10249;DHT22;5169;50.560;9.714;2022-07-01T07:40:33;17.90;99.90
10249;DHT22;5169;50.560;9.714;2022-07-01T07:43:01;17.80;99.90
10249;DHT22;5169;50.560;9.714;2022-07-01T07:45:29;17.80;99.90
10249;DHT22;5169;50.560;9.714;2022-07-01T07:47:54;18.00;99.90
10249;DHT22;5169;50.560;9.714;2022-07-01T07:50:21;18.00;99.90
10249;DHT22;5169;50.560;9.714;2022-07-01T07:52:47;18.20;99.90
10249;DHT22;5169;50.560;9.714;2022-07-01T07:55:13;18.40;99.90
10249;DHT22;5169;50.560;9.714;2022-07-01T07:57:42;18.50;99.90
10249;DHT22;5169;50.560;9.714;2022-07-01T08:00:09;18.40;99.90
10249;DHT22;5169;50.560;9.714;2022-07-01T08:02:36;18.40;99.90
10249;DHT22;5169;50.560;9.714;2022-07-01T08:05:02;18.50;99.90
10249;DHT22;5169;50.560;9.714;2022-07-01T08:07:35;18.50;99.90
10249;DHT22;5169;50.560;9.714;2022-07-01T08:10:07;18.60;99.90
10249;DHT22;5169;50.560;9.714;2022-07-01T08:12:34;18.50;99.90
10249;DHT22;5169;50.560;9.714;2022-07-01T08:14:59;18.50;99.90
10249;DHT22;5169;50.560;9.714;2022-07-01T08:17:28;18.40;99.90
10249;DHT22;5169;50.560;9.714;2022-07-01T08:19:53;18.20;99.90
10249;DHT22;5169;50.560;9.714;2022-07-01T08:22:19;18.10;99.90
10249;DHT22;5169;50.560;9.714;2022-07-01T08:24:49;17.90;99.90
10249;DHT22;5169;50.560;9.714;2022-07-01T08:27:15;18.00;99.90
10249;DHT22;5169;50.560;9.714;2022-07-01T08:29:41;18.10;99.90
10249;DHT22;5169;50.560;9.714;2022-07-01T08:32:07;18.20;99.90
10249;DHT22;5169;50.560;9.714;2022-07-01T08:34:36;18.20;99.90
10249;DHT22;5169;50.560;9.714;2022-07-01T08:37:05;18.30;99.90
10249;DHT22;5169;50.560;9.714;2022-07-01T08:39:31;18.20;99.90
10249;DHT22;5169;50.560;9.714;2022-07-01T08:41:59;18.10;99.90
10249;DHT22;5169;50.560;9.714;2022-07-01T08:44:26;17.90;99.90
10249;DHT22;5169;50.560;9.714;2022-07-01T08:46:51;17.80;99.90
10249;DHT22;5169;50.560;9.714;2022-07-01T08:49:17;17.80;99.90
10249;DHT22;5169;50.560;9.714;2022-07-01T08:51:43;17.60;99.90
10249;DHT22;5169;50.560;9.714;2022-07-01T08:54:09;17.50;99.90
10249;DHT22;5169;50.560;9.714;2022-07-01T08:56:35;17.50;99.90
10249;DHT22;5169;50.560;9.714;2022-07-01T08:59:10;17.40;99.90
10249;DHT22;5169;50.560;9.714;2022-07-01T09:01:37;17.30;99.90
10249;DHT22;5169;50.560;9.714;2022-07-01T09:04:19;17.20;99.90
10249;DHT22;5169;50.560;9.714;2022-07-01T09:06:50;17.10;99.90
10249;DHT22;5169;50.560;9.714;2022-07-01T09:09:17;17.20;99.90
10249;DHT22;5169;50.560;9.714;2022-07-01T09:14:15;17.10;99.90
10249;DHT22;5169;50.560;9.714;2022-07-01T09:16:48;17.00;99.90
10249;DHT22;5169;50.560;9.714;2022-07-01T09:19:18;16.80;99.90
10249;DHT22;5169;50.560;9.714;2022-07-01T09:21:52;16.60;99.90
10249;DHT22;5169;50.560;9.714;2022-07-01T09:24:31;16.60;99.90
10249;DHT22;5169;50.560;9.714;2022-07-01T09:27:05;16.50;99.90
10249;DHT22;5169;50.560;9.714;2022-07-01T09:29:52;16.50;99.90
10249;DHT22;5169;50.560;9.714;2022-07-01T09:32:21;16.50;99.90
10249;DHT22;5169;50.560;9.714;2022-07-01T09:34:51;16.50;99.90
10249;DHT22;5169;50.560;9.714;2022-07-01T09:37:21;16.50;99.90
10249;DHT22;5169;50.560;9.714;2022-07-01T09:39:48;16.40;99.90
10249;DHT22;5169;50.560;9.714;2022-07-01T09:42:15;16.40;99.90
10249;DHT22;5169;50.560;9.714;2022-07-01T09:47:17;16.40;99.90
10249;DHT22;5169;50.560;9.714;2022-07-01T09:49:43;16.20;99.90
10249;DHT22;5169;50.560;9.714;2022-07-01T09:52:12;16.00;99.90
10249;DHT22;5169;50.560;9.714;2022-07-01T09:54:37;16.10;99.90
10249;DHT22;5169;50.560;9.714;2022-07-01T09:57:03;16.10;99.90
10249;DHT22;5169;50.560;9.714;2022-07-01T09:59:29;16.10;99.90
10249;DHT22;5169;50.560;9.714;2022-07-01T10:01:55;16.30;99.90
10249;DHT22;5169;50.560;9.714;2022-07-01T10:04:23;16.20;99.90
10249;DHT22;5169;50.560;9.714;2022-07-01T10:07:01;16.30;99.90
10249;DHT22;5169;50.560;9.714;2022-07-01T10:14:52;16.10;99.90
10249;DHT22;5169;50.560;9.714;2022-07-01T10:17:30;16.40;99.90
10249;DHT22;5169;50.560;9.714;2022-07-01T10:20:06;16.60;99.90
10249;DHT22;5169;50.560;9.714;2022-07-01T10:22:35;16.80;99.90
10249;DHT22;5169;50.560;9.714;2022-07-01T10:31:09;17.10;99.90
10249;DHT22;5169;50.560;9.714;2022-07-01T10:44:25;17.40;99.90
10249;DHT22;5169;50.560;9.714;2022-07-01T10:52:13;17.50;99.90
10249;DHT22;5169;50.560;9.714;2022-07-01T11:02:28;17.00;99.90
10249;DHT22;5169;50.560;9.714;2022-07-01T11:05:02;17.00;99.90
10249;DHT22;5169;50.560;9.714;2022-07-01T11:07:33;17.20;99.90
10249;DHT22;5169;50.560;9.714;2022-07-01T11:10:01;17.20;99.90
10249;DHT22;5169;50.560;9.714;2022-07-01T11:12:28;17.30;99.90
10249;DHT22;5169;50.560;9.714;2022-07-01T11:14:56;17.30;99.90
10249;DHT22;5169;50.560;9.714;2022-07-01T11:17:24;17.50;99.90
10249;DHT22;5169;50.560;9.714;2022-07-01T11:19:53;17.60;99.90
10249;DHT22;5169;50.560;9.714;2022-07-01T11:22:25;17.80;99.90
10249;DHT22;5169;50.560;9.714;2022-07-01T11:24:59;17.70;99.90
10249;DHT22;5169;50.560;9.714;2022-07-01T11:27:28;17.60;99.90
10249;DHT22;5169;50.560;9.714;2022-07-01T11:29:58;17.50;99.90
10249;DHT22;5169;50.560;9.714;2022-07-01T11:32:25;17.40;99.90
10249;DHT22;5169;50.560;9.714;2022-07-01T11:34:51;17.30;99.90
10249;DHT22;5169;50.560;9.714;2022-07-01T11:37:20;17.50;99.90
10249;DHT22;5169;50.560;9.714;2022-07-01T11:40:08;17.50;99.90
10249;DHT22;5169;50.560;9.714;2022-07-01T11:42:35;17.70;99.90
10249;DHT22;5169;50.560;9.714;2022-07-01T11:45:01;18.20;99.90
10249;DHT22;5169;50.560;9.714;2022-07-01T11:47:33;18.60;99.90
10249;DHT22;5169;50.560;9.714;2022-07-01T11:49:59;18.50;99.90
10249;DHT22;5169;50.560;9.714;2022-07-01T11:52:26;18.50;99.90
10249;DHT22;5169;50.560;9.714;2022-07-01T11:54:57;18.20;99.90
10249;DHT22;5169;50.560;9.714;2022-07-01T11:57:25;18.00;99.90
10249;DHT22;5169;50.560;9.714;2022-07-01T11:59:55;18.10;99.90
10249;DHT22;5169;50.560;9.714;2022-07-01T12:02:23;18.10;99.90
10249;DHT22;5169;50.560;9.714;2022-07-01T12:04:51;17.90;99.90
10249;DHT22;5169;50.560;9.714;2022-07-01T12:07:23;17.60;99.90
10249;DHT22;5169;50.560;9.714;2022-07-01T12:09:50;17.60;99.90
10249;DHT22;5169;50.560;9.714;2022-07-01T12:12:21;17.40;99.90
10249;DHT22;5169;50.560;9.714;2022-07-01T12:14:59;17.40;99.90
10249;DHT22;5169;50.560;9.714;2022-07-01T12:17:26;17.30;99.90
10249;DHT22;5169;50.560;9.714;2022-07-01T12:19:54;17.20;99.90
10249;DHT22;5169;50.560;9.714;2022-07-01T12:22:25;17.00;99.90
10249;DHT22;5169;50.560;9.714;2022-07-01T12:25:04;17.10;99.90
10249;DHT22;5169;50.560;9.714;2022-07-01T12:27:33;17.20;99.90
10249;DHT22;5169;50.560;9.714;2022-07-01T12:29:59;17.10;99.90
10249;DHT22;5169;50.560;9.714;2022-07-01T12:32:28;17.10;99.90
10249;DHT22;5169;50.560;9.714;2022-07-01T12:37:30;17.10;99.90
10249;DHT22;5169;50.560;9.714;2022-07-01T12:40:00;17.20;99.90
10249;DHT22;5169;50.560;9.714;2022-07-01T12:42:29;17.40;99.90
10249;DHT22;5169;50.560;9.714;2022-07-01T12:45:00;17.70;99.90
10249;DHT22;5169;50.560;9.714;2022-07-01T12:55:39;19.40;99.90
10249;DHT22;5169;50.560;9.714;2022-07-01T12:58:39;19.60;99.90
10249;DHT22;5169;50.560;9.714;2022-07-01T13:00:58;19.70;99.90
10249;DHT22;5169;50.560;9.714;2022-07-01T13:03:27;19.40;99.90
10249;DHT22;5169;50.560;9.714;2022-07-01T13:05:56;19.20;99.90
10249;DHT22;5169;50.560;9.714;2022-07-01T13:08:24;19.10;99.90
10249;DHT22;5169;50.560;9.714;2022-07-01T13:10:49;19.30;99.90
10249;DHT22;5169;50.560;9.714;2022-07-01T13:13:16;19.30;99.90
10249;DHT22;5169;50.560;9.714;2022-07-01T13:15:43;19.10;99.90
10249;DHT22;5169;50.560;9.714;2022-07-01T13:18:10;19.20;99.90
10249;DHT22;5169;50.560;9.714;2022-07-01T13:20:36;19.30;99.90
10249;DHT22;5169;50.560;9.714;2022-07-01T13:23:03;19.30;99.90
10249;DHT22;5169;50.560;9.714;2022-07-01T13:25:30;19.40;99.90
10249;DHT22;5169;50.560;9.714;2022-07-01T13:27:57;19.50;99.90
10249;DHT22;5169;50.560;9.714;2022-07-01T13:30:22;19.70;99.90
10249;DHT22;5169;50.560;9.714;2022-07-01T13:32:48;20.00;99.90
10249;DHT22;5169;50.560;9.714;2022-07-01T13:35:17;20.00;99.90
10249;DHT22;5169;50.560;9.714;2022-07-01T13:37:43;20.20;99.90
10249;DHT22;5169;50.560;9.714;2022-07-01T13:40:12;20.40;99.90
10249;DHT22;5169;50.560;9.714;2022-07-01T13:42:37;20.60;99.90
10249;DHT22;5169;50.560;9.714;2022-07-01T13:45:04;20.60;99.90
10249;DHT22;5169;50.560;9.714;2022-07-01T13:47:30;20.50;99.90
10249;DHT22;5169;50.560;9.714;2022-07-01T13:49:56;20.40;99.90
10249;DHT22;5169;50.560;9.714;2022-07-01T13:52:22;20.30;99.90
10249;DHT22;5169;50.560;9.714;2022-07-01T13:54:50;20.40;99.90
10249;DHT22;5169;50.560;9.714;2022-07-01T13:57:18;20.40;99.90
10249;DHT22;5169;50.560;9.714;2022-07-01T13:59:46;20.50;99.90
10249;DHT22;5169;50.560;9.714;2022-07-01T14:02:12;20.60;99.90
10249;DHT22;5169;50.560;9.714;2022-07-01T14:04:40;20.70;99.90
10249;DHT22;5169;50.560;9.714;2022-07-01T14:07:08;20.70;99.50
10249;DHT22;5169;50.560;9.714;2022-07-01T14:09:36;20.50;99.90
10249;DHT22;5169;50.560;9.714;2022-07-01T14:12:06;20.40;99.90
10249;DHT22;5169;50.560;9.714;2022-07-01T14:14:34;20.10;99.90
10249;DHT22;5169;50.560;9.714;2022-07-01T14:17:00;20.00;99.90
10249;DHT22;5169;50.560;9.714;2022-07-01T14:19:26;20.00;99.90
10249;DHT22;5169;50.560;9.714;2022-07-01T14:21:54;20.00;99.90
10249;DHT22;5169;50.560;9.714;2022-07-01T14:24:20;20.00;99.90
10249;DHT22;5169;50.560;9.714;2022-07-01T14:26:46;19.80;99.90
10249;DHT22;5169;50.560;9.714;2022-07-01T14:29:14;20.00;99.90
10249;DHT22;5169;50.560;9.714;2022-07-01T14:31:40;20.10;99.90
10249;DHT22;5169;50.560;9.714;2022-07-01T14:34:05;20.20;99.90
10249;DHT22;5169;50.560;9.714;2022-07-01T14:36:34;20.30;99.90
10249;DHT22;5169;50.560;9.714;2022-07-01T14:38:59;20.40;99.90
10249;DHT22;5169;50.560;9.714;2022-07-01T14:41:27;20.70;99.90
10249;DHT22;5169;50.560;9.714;2022-07-01T14:43:55;20.90;98.70
10249;DHT22;5169;50.560;9.714;2022-07-01T14:46:21;20.80;98.60
10249;DHT22;5169;50.560;9.714;2022-07-01T14:48:47;20.80;98.40
10249;DHT22;5169;50.560;9.714;2022-07-01T14:51:15;20.80;98.20
10249;DHT22;5169;50.560;9.714;2022-07-01T14:53:40;20.60;98.80
10249;DHT22;5169;50.560;9.714;2022-07-01T14:56:06;20.70;99.90
10249;DHT22;5169;50.560;9.714;2022-07-01T14:58:36;20.60;99.30
10249;DHT22;5169;50.560;9.714;2022-07-01T15:01:10;20.30;98.90
10249;DHT22;5169;50.560;9.714;2022-07-01T15:03:36;20.20;99.80
10249;DHT22;5169;50.560;9.714;2022-07-01T15:06:02;20.30;99.90
10249;DHT22;5169;50.560;9.714;2022-07-01T15:08:28;20.20;99.50
10249;DHT22;5169;50.560;9.714;2022-07-01T15:10:54;20.30;99.90
10249;DHT22;5169;50.560;9.714;2022-07-01T15:13:32;20.30;99.90
10249;DHT22;5169;50.560;9.714;2022-07-01T15:16:00;20.20;99.60
10249;DHT22;5169;50.560;9.714;2022-07-01T15:18:29;20.20;99.10
10249;DHT22;5169;50.560;9.714;2022-07-01T15:20:57;20.00;99.90
10249;DHT22;5169;50.560;9.714;2022-07-01T15:23:23;19.80;99.90
10249;DHT22;5169;50.560;9.714;2022-07-01T15:25:48;19.90;99.90
10249;DHT22;5169;50.560;9.714;2022-07-01T15:28:14;19.90;99.90
10249;DHT22;5169;50.560;9.714;2022-07-01T15:30:43;20.10;99.60
10249;DHT22;5169;50.560;9.714;2022-07-01T15:33:11;20.20;99.50
10249;DHT22;5169;50.560;9.714;2022-07-01T15:35:41;20.30;99.90
10249;DHT22;5169;50.560;9.714;2022-07-01T15:38:09;20.50;99.10
10249;DHT22;5169;50.560;9.714;2022-07-01T15:40:37;20.70;99.20
10249;DHT22;5169;50.560;9.714;2022-07-01T15:43:03;20.60;98.10
10249;DHT22;5169;50.560;9.714;2022-07-01T15:45:31;20.60;98.20
10249;DHT22;5169;50.560;9.714;2022-07-01T15:48:02;20.60;98.50
10249;DHT22;5169;50.560;9.714;2022-07-01T15:50:37;20.60;98.80
10249;DHT22;5169;50.560;9.714;2022-07-01T15:53:03;20.50;99.20
10249;DHT22;5169;50.560;9.714;2022-07-01T15:55:29;20.40;99.00
10249;DHT22;5169;50.560;9.714;2022-07-01T15:57:57;20.40;98.40
10249;DHT22;5169;50.560;9.714;2022-07-01T16:00:29;20.50;98.70
10249;DHT22;5169;50.560;9.714;2022-07-01T16:02:57;20.60;98.30
10249;DHT22;5169;50.560;9.714;2022-07-01T16:05:23;20.50;98.90
10249;DHT22;5169;50.560;9.714;2022-07-01T16:07:58;20.30;98.60
10249;DHT22;5169;50.560;9.714;2022-07-01T16:10:29;20.40;99.20
10249;DHT22;5169;50.560;9.714;2022-07-01T16:13:01;20.50;98.50
10249;DHT22;5169;50.560;9.714;2022-07-01T16:22:12;20.20;98.20
10249;DHT22;5169;50.560;9.714;2022-07-01T16:24:38;20.40;98.10
10249;DHT22;5169;50.560;9.714;2022-07-01T16:27:06;20.40;98.10
10249;DHT22;5169;50.560;9.714;2022-07-01T16:29:32;20.30;97.40
10249;DHT22;5169;50.560;9.714;2022-07-01T16:32:00;20.20;98.40
10249;DHT22;5169;50.560;9.714;2022-07-01T16:34:27;20.30;98.20
10249;DHT22;5169;50.560;9.714;2022-07-01T16:36:55;20.10;97.50
10249;DHT22;5169;50.560;9.714;2022-07-01T16:39:25;20.10;97.90
10249;DHT22;5169;50.560;9.714;2022-07-01T16:42:10;20.10;97.30
10249;DHT22;5169;50.560;9.714;2022-07-01T16:45:03;20.10;97.30
10249;DHT22;5169;50.560;9.714;2022-07-01T16:47:30;20.00;96.70
10249;DHT22;5169;50.560;9.714;2022-07-01T16:49:58;20.00;96.10
10249;DHT22;5169;50.560;9.714;2022-07-01T16:52:37;20.00;96.30
10249;DHT22;5169;50.560;9.714;2022-07-01T16:55:10;19.90;96.70